sensor_id;sensor_type;location;lat;lon;timestamp;pressure;altitude;pressure_sealevel;temperature;humidity
61906;BME280;47863;55.766;37.672;2024-01-30T00:01:58;100973.81;;;-0.76;92.22
61906;BME280;47863;55.766;37.672;2024-01-30T00:04:24;100971.19;;;-0.76;92.18
61906;BME280;47863;55.766;37.672;2024-01-30T00:06:51;100985.19;;;-0.75;92.42
61906;BME280;47863;55.766;37.672;2024-01-30T00:09:16;100994.00;;;-0.76;92.43
61906;BME280;47863;55.766;37.672;2024-01-30T00:11:42;100991.31;;;-0.75;92.62
61906;BME280;47863;55.766;37.672;2024-01-30T00:14:07;100949.88;;;-0.92;92.27
61906;BME280;47863;55.766;37.672;2024-01-30T00:16:33;100947.94;;;-0.87;92.56
61906;BME280;47863;55.766;37.672;2024-01-30T00:18:59;100938.75;;;-0.98;92.05
61906;BME280;47863;55.766;37.672;2024-01-30T00:21:27;100976.25;;;-0.71;92.35
61906;BME280;47863;55.766;37.672;2024-01-30T00:23:53;100972.78;;;-0.72;92.63
61906;BME280;47863;55.766;37.672;2024-01-30T00:26:19;100972.66;;;-0.69;92.45
61906;BME280;47863;55.766;37.672;2024-01-30T00:28:46;100951.16;;;-0.80;92.06
61906;BME280;47863;55.766;37.672;2024-01-30T00:31:11;100950.06;;;-0.74;92.45
61906;BME280;47863;55.766;37.672;2024-01-30T00:33:40;100955.03;;;-0.67;92.28
61906;BME280;47863;55.766;37.672;2024-01-30T00:36:07;100956.06;;;-0.71;92.21
61906;BME280;47863;55.766;37.672;2024-01-30T00:38:32;100967.31;;;-0.67;92.35
61906;BME280;47863;55.766;37.672;2024-01-30T00:40:58;100946.75;;;-0.80;92.04
61906;BME280;47863;55.766;37.672;2024-01-30T00:43:24;100961.19;;;-0.68;92.05
61906;BME280;47863;55.766;37.672;2024-01-30T00:45:52;100944.13;;;-0.80;92.19
61906;BME280;47863;55.766;37.672;2024-01-30T00:48:18;100951.53;;;-0.67;92.17
61906;BME280;47863;55.766;37.672;2024-01-30T00:50:44;100926.81;;;-0.85;92.39
61906;BME280;47863;55.766;37.672;2024-01-30T00:53:10;100954.34;;;-0.72;92.17
61906;BME280;47863;55.766;37.672;2024-01-30T00:55:35;100949.03;;;-0.70;92.05
61906;BME280;47863;55.766;37.672;2024-01-30T00:58:01;100962.78;;;-0.64;92.45
61906;BME280;47863;55.766;37.672;2024-01-30T01:00:27;100945.66;;;-0.74;92.43
61906;BME280;47863;55.766;37.672;2024-01-30T01:02:55;100952.50;;;-0.70;92.35
61906;BME280;47863;55.766;37.672;2024-01-30T01:05:21;100944.25;;;-0.61;92.07
61906;BME280;47863;55.766;37.672;2024-01-30T01:07:46;100940.44;;;-0.75;92.07
61906;BME280;47863;55.766;37.672;2024-01-30T01:10:13;100954.00;;;-0.63;92.11
61906;BME280;47863;55.766;37.672;2024-01-30T01:12:39;100953.06;;;-0.62;92.08
61906;BME280;47863;55.766;37.672;2024-01-30T01:15:05;100948.72;;;-0.63;92.36
61906;BME280;47863;55.766;37.672;2024-01-30T01:17:34;100945.06;;;-0.58;92.43
61906;BME280;47863;55.766;37.672;2024-01-30T01:20:00;100941.63;;;-0.61;92.19
61906;BME280;47863;55.766;37.672;2024-01-30T01:22:25;100958.81;;;-0.52;92.18
61906;BME280;47863;55.766;37.672;2024-01-30T01:24:51;100942.06;;;-0.49;92.19
61906;BME280;47863;55.766;37.672;2024-01-30T01:27:17;100956.91;;;-0.48;92.39
61906;BME280;47863;55.766;37.672;2024-01-30T01:29:42;100931.75;;;-0.55;92.76
61906;BME280;47863;55.766;37.672;2024-01-30T01:32:08;100919.38;;;-0.53;92.03
61906;BME280;47863;55.766;37.672;2024-01-30T01:34:34;100935.66;;;-0.44;91.80
61906;BME280;47863;55.766;37.672;2024-01-30T01:36:59;100884.34;;;-0.76;92.34
61906;BME280;47863;55.766;37.672;2024-01-30T01:39:25;100927.84;;;-0.45;92.00
61906;BME280;47863;55.766;37.672;2024-01-30T01:41:51;100881.47;;;-0.70;92.07
61906;BME280;47863;55.766;37.672;2024-01-30T01:44:17;100875.22;;;-0.67;91.90
61906;BME280;47863;55.766;37.672;2024-01-30T01:46:44;100884.28;;;-0.52;91.93
61906;BME280;47863;55.766;37.672;2024-01-30T01:49:09;100907.44;;;-0.40;92.09
61906;BME280;47863;55.766;37.672;2024-01-30T01:51:36;100907.59;;;-0.43;92.05
61906;BME280;47863;55.766;37.672;2024-01-30T01:54:04;100911.06;;;-0.43;92.23
61906;BME280;47863;55.766;37.672;2024-01-30T01:56:31;100914.59;;;-0.44;91.98
61906;BME280;47863;55.766;37.672;2024-01-30T01:59:00;100929.44;;;-0.41;92.25
61906;BME280;47863;55.766;37.672;2024-01-30T02:01:27;100927.53;;;-0.37;92.02
61906;BME280;47863;55.766;37.672;2024-01-30T02:03:54;100887.00;;;-0.55;92.25
61906;BME280;47863;55.766;37.672;2024-01-30T02:06:19;100880.75;;;-0.51;92.09
61906;BME280;47863;55.766;37.672;2024-01-30T02:08:45;100879.00;;;-0.52;92.18
61906;BME280;47863;55.766;37.672;2024-01-30T02:11:11;100906.94;;;-0.28;92.06
61906;BME280;47863;55.766;37.672;2024-01-30T02:13:37;100921.81;;;-0.27;91.99
61906;BME280;47863;55.766;37.672;2024-01-30T02:16:02;100921.03;;;-0.29;91.95
61906;BME280;47863;55.766;37.672;2024-01-30T02:18:28;100917.41;;;-0.26;91.81
61906;BME280;47863;55.766;37.672;2024-01-30T02:21:15;100913.34;;;-0.33;91.99
61906;BME280;47863;55.766;37.672;2024-01-30T02:23:43;100866.09;;;-0.58;92.01
61906;BME280;47863;55.766;37.672;2024-01-30T02:26:09;100902.91;;;-0.36;91.95
61906;BME280;47863;55.766;37.672;2024-01-30T02:28:34;100933.81;;;-0.19;91.95
61906;BME280;47863;55.766;37.672;2024-01-30T02:31:00;100905.13;;;-0.26;91.94
61906;BME280;47863;55.766;37.672;2024-01-30T02:33:25;100920.66;;;-0.19;91.77
61906;BME280;47863;55.766;37.672;2024-01-30T02:35:51;100876.69;;;-0.40;91.82
61906;BME280;47863;55.766;37.672;2024-01-30T02:38:17;100892.28;;;-0.33;91.88
61906;BME280;47863;55.766;37.672;2024-01-30T02:40:42;100910.97;;;-0.19;92.13
61906;BME280;47863;55.766;37.672;2024-01-30T02:43:09;100901.66;;;-0.28;92.08
61906;BME280;47863;55.766;37.672;2024-01-30T02:45:35;100903.38;;;-0.27;91.75
61906;BME280;47863;55.766;37.672;2024-01-30T02:48:00;100895.59;;;-0.30;92.02
61906;BME280;47863;55.766;37.672;2024-01-30T02:50:26;100891.22;;;-0.29;92.06
61906;BME280;47863;55.766;37.672;2024-01-30T02:52:52;100875.84;;;-0.40;91.84
61906;BME280;47863;55.766;37.672;2024-01-30T02:55:17;100909.06;;;-0.15;91.72
61906;BME280;47863;55.766;37.672;2024-01-30T02:57:44;100894.31;;;-0.19;91.94
61906;BME280;47863;55.766;37.672;2024-01-30T03:00:10;100868.56;;;-0.33;91.58
61906;BME280;47863;55.766;37.672;2024-01-30T03:02:36;100902.13;;;-0.18;91.99
61906;BME280;47863;55.766;37.672;2024-01-30T03:05:02;100910.03;;;-0.18;91.86
61906;BME280;47863;55.766;37.672;2024-01-30T03:07:29;100914.13;;;-0.11;92.06
61906;BME280;47863;55.766;37.672;2024-01-30T03:09:55;100889.53;;;-0.32;91.93
61906;BME280;47863;55.766;37.672;2024-01-30T03:12:21;100927.34;;;-0.12;91.76
61906;BME280;47863;55.766;37.672;2024-01-30T03:14:47;100928.03;;;-0.07;91.96
61906;BME280;47863;55.766;37.672;2024-01-30T03:17:12;100937.56;;;-0.05;91.93
61906;BME280;47863;55.766;37.672;2024-01-30T03:19:38;100916.22;;;-0.19;91.82
61906;BME280;47863;55.766;37.672;2024-01-30T03:22:04;100943.56;;;-0.01;91.84
61906;BME280;47863;55.766;37.672;2024-01-30T03:24:30;100916.81;;;-0.12;91.77
61906;BME280;47863;55.766;37.672;2024-01-30T03:26:56;100942.66;;;0.00;92.15
61906;BME280;47863;55.766;37.672;2024-01-30T03:29:21;100940.88;;;0.01;91.77
61906;BME280;47863;55.766;37.672;2024-01-30T03:31:47;100953.09;;;0.02;91.82
61906;BME280;47863;55.766;37.672;2024-01-30T03:34:12;100925.50;;;-0.10;91.92
61906;BME280;47863;55.766;37.672;2024-01-30T03:36:38;100936.25;;;0.06;92.31
61906;BME280;47863;55.766;37.672;2024-01-30T03:39:04;100924.28;;;-0.02;92.13
61906;BME280;47863;55.766;37.672;2024-01-30T03:41:29;100897.47;;;-0.11;92.33
61906;BME280;47863;55.766;37.672;2024-01-30T03:43:55;100903.31;;;-0.05;91.86
61906;BME280;47863;55.766;37.672;2024-01-30T03:46:21;100909.19;;;0.02;92.06
61906;BME280;47863;55.766;37.672;2024-01-30T03:48:46;100926.31;;;0.12;92.19
61906;BME280;47863;55.766;37.672;2024-01-30T03:51:12;100929.75;;;0.14;92.06
61906;BME280;47863;55.766;37.672;2024-01-30T03:53:40;100929.88;;;0.11;91.96
61906;BME280;47863;55.766;37.672;2024-01-30T03:56:07;100949.81;;;0.17;92.00
61906;BME280;47863;55.766;37.672;2024-01-30T03:58:33;100927.38;;;0.08;92.11
61906;BME280;47863;55.766;37.672;2024-01-30T04:00:59;100946.97;;;0.22;92.31
61906;BME280;47863;55.766;37.672;2024-01-30T04:03:24;100958.31;;;0.24;91.94
61906;BME280;47863;55.766;37.672;2024-01-30T04:05:53;100954.75;;;0.25;91.98
61906;BME280;47863;55.766;37.672;2024-01-30T04:08:19;100950.50;;;0.22;92.05
61906;BME280;47863;55.766;37.672;2024-01-30T04:10:44;100940.00;;;0.21;91.97
61906;BME280;47863;55.766;37.672;2024-01-30T04:13:10;100937.38;;;0.21;92.27
61906;BME280;47863;55.766;37.672;2024-01-30T04:15:36;100918.19;;;0.17;92.33
61906;BME280;47863;55.766;37.672;2024-01-30T04:18:02;100947.44;;;0.31;92.24
61906;BME280;47863;55.766;37.672;2024-01-30T04:20:28;100932.75;;;0.26;92.58
61906;BME280;47863;55.766;37.672;2024-01-30T04:22:54;100947.31;;;0.34;92.02
61906;BME280;47863;55.766;37.672;2024-01-30T04:25:20;100955.16;;;0.36;92.11
61906;BME280;47863;55.766;37.672;2024-01-30T04:27:45;100952.44;;;0.37;92.09
61906;BME280;47863;55.766;37.672;2024-01-30T04:30:11;100939.19;;;0.39;92.08
61906;BME280;47863;55.766;37.672;2024-01-30T04:32:37;100932.06;;;0.41;91.88
61906;BME280;47863;55.766;37.672;2024-01-30T04:35:03;100941.75;;;0.41;92.25
61906;BME280;47863;55.766;37.672;2024-01-30T04:37:30;100911.41;;;0.32;92.16
61906;BME280;47863;55.766;37.672;2024-01-30T04:39:56;100885.84;;;0.13;92.01
61906;BME280;47863;55.766;37.672;2024-01-30T04:42:22;100913.16;;;0.31;91.94
61906;BME280;47863;55.766;37.672;2024-01-30T04:44:47;100943.22;;;0.48;92.39
61906;BME280;47863;55.766;37.672;2024-01-30T04:47:13;100937.50;;;0.38;92.15
61906;BME280;47863;55.766;37.672;2024-01-30T04:49:39;100940.44;;;0.51;92.36
61906;BME280;47863;55.766;37.672;2024-01-30T04:52:06;100947.63;;;0.47;92.15
61906;BME280;47863;55.766;37.672;2024-01-30T04:54:31;100942.44;;;0.46;92.21
61906;BME280;47863;55.766;37.672;2024-01-30T04:56:57;100945.63;;;0.52;92.44
61906;BME280;47863;55.766;37.672;2024-01-30T04:59:23;100947.44;;;0.52;92.27
61906;BME280;47863;55.766;37.672;2024-01-30T05:01:49;100934.19;;;0.53;91.98
61906;BME280;47863;55.766;37.672;2024-01-30T05:04:14;100936.00;;;0.51;92.38
61906;BME280;47863;55.766;37.672;2024-01-30T05:06:40;100938.56;;;0.53;92.31
61906;BME280;47863;55.766;37.672;2024-01-30T05:09:06;100918.88;;;0.41;92.43
61906;BME280;47863;55.766;37.672;2024-01-30T05:11:37;100930.47;;;0.57;92.31
61906;BME280;47863;55.766;37.672;2024-01-30T05:14:03;100940.94;;;0.59;92.37
61906;BME280;47863;55.766;37.672;2024-01-30T05:16:28;100938.22;;;0.61;92.03
61906;BME280;47863;55.766;37.672;2024-01-30T05:18:54;100917.69;;;0.48;92.31
61906;BME280;47863;55.766;37.672;2024-01-30T05:21:19;100916.91;;;0.46;92.09
61906;BME280;47863;55.766;37.672;2024-01-30T05:23:45;100946.09;;;0.62;91.82
61906;BME280;47863;55.766;37.672;2024-01-30T05:26:10;100948.72;;;0.62;91.88
61906;BME280;47863;55.766;37.672;2024-01-30T05:28:36;100941.28;;;0.51;92.08
61906;BME280;47863;55.766;37.672;2024-01-30T05:31:01;100972.28;;;0.65;92.22
61906;BME280;47863;55.766;37.672;2024-01-30T05:33:28;100960.97;;;0.63;92.29
61906;BME280;47863;55.766;37.672;2024-01-30T05:35:53;100951.34;;;0.62;92.32
61906;BME280;47863;55.766;37.672;2024-01-30T05:38:25;100958.16;;;0.68;92.42
61906;BME280;47863;55.766;37.672;2024-01-30T05:40:51;100950.16;;;0.69;92.00
61906;BME280;47863;55.766;37.672;2024-01-30T05:43:17;100950.34;;;0.65;92.27
61906;BME280;47863;55.766;37.672;2024-01-30T05:45:42;100959.78;;;0.70;92.21
61906;BME280;47863;55.766;37.672;2024-01-30T05:48:08;100957.06;;;0.72;92.41
61906;BME280;47863;55.766;37.672;2024-01-30T05:50:34;100905.00;;;0.37;92.13
61906;BME280;47863;55.766;37.672;2024-01-30T05:52:59;100963.41;;;0.68;92.21
61906;BME280;47863;55.766;37.672;2024-01-30T05:55:25;100959.50;;;0.76;92.18
61906;BME280;47863;55.766;37.672;2024-01-30T05:57:50;100949.50;;;0.64;92.32
61906;BME280;47863;55.766;37.672;2024-01-30T06:00:17;100963.91;;;0.76;92.02
61906;BME280;47863;55.766;37.672;2024-01-30T06:02:43;100936.38;;;0.63;92.61
61906;BME280;47863;55.766;37.672;2024-01-30T06:05:09;100972.34;;;0.84;92.49
61906;BME280;47863;55.766;37.672;2024-01-30T06:07:34;100954.22;;;0.76;92.06
61906;BME280;47863;55.766;37.672;2024-01-30T06:10:00;100975.75;;;0.86;92.32
61906;BME280;47863;55.766;37.672;2024-01-30T06:12:30;100955.22;;;0.74;92.46
61906;BME280;47863;55.766;37.672;2024-01-30T06:14:55;100968.91;;;0.82;92.45
61906;BME280;47863;55.766;37.672;2024-01-30T06:17:23;100978.09;;;0.92;92.44
61906;BME280;47863;55.766;37.672;2024-01-30T06:19:49;100989.44;;;0.94;92.33
61906;BME280;47863;55.766;37.672;2024-01-30T06:22:15;100987.59;;;0.96;92.54
61906;BME280;47863;55.766;37.672;2024-01-30T06:24:41;100970.78;;;0.99;92.36
61906;BME280;47863;55.766;37.672;2024-01-30T06:27:06;100984.66;;;1.03;92.24
61906;BME280;47863;55.766;37.672;2024-01-30T06:29:32;100958.78;;;0.92;92.22
61906;BME280;47863;55.766;37.672;2024-01-30T06:31:58;100945.91;;;0.86;91.82
61906;BME280;47863;55.766;37.672;2024-01-30T06:34:23;100993.81;;;1.14;91.92
61906;BME280;47863;55.766;37.672;2024-01-30T06:36:49;100985.88;;;1.14;91.96
61906;BME280;47863;55.766;37.672;2024-01-30T06:39:15;100998.88;;;1.19;92.22
61906;BME280;47863;55.766;37.672;2024-01-30T06:41:40;100994.16;;;1.26;91.80
61906;BME280;47863;55.766;37.672;2024-01-30T06:44:06;100984.69;;;1.22;91.85
61906;BME280;47863;55.766;37.672;2024-01-30T06:46:33;100975.13;;;1.19;92.28
61906;BME280;47863;55.766;37.672;2024-01-30T06:48:59;101001.59;;;1.36;92.28
61906;BME280;47863;55.766;37.672;2024-01-30T06:51:25;101000.59;;;1.39;92.24
61906;BME280;47863;55.766;37.672;2024-01-30T06:53:50;100970.56;;;1.23;92.06
61906;BME280;47863;55.766;37.672;2024-01-30T06:56:16;101006.66;;;1.41;92.10
61906;BME280;47863;55.766;37.672;2024-01-30T06:58:47;100991.94;;;1.35;92.19
61906;BME280;47863;55.766;37.672;2024-01-30T07:01:14;100992.72;;;1.37;92.71
61906;BME280;47863;55.766;37.672;2024-01-30T07:03:40;101003.72;;;1.47;92.16
61906;BME280;47863;55.766;37.672;2024-01-30T07:06:05;100965.97;;;1.26;92.06
61906;BME280;47863;55.766;37.672;2024-01-30T07:08:31;100980.91;;;1.27;92.05
61906;BME280;47863;55.766;37.672;2024-01-30T07:10:57;101000.53;;;1.41;91.99
61906;BME280;47863;55.766;37.672;2024-01-30T07:13:22;101010.56;;;1.51;92.38
61906;BME280;47863;55.766;37.672;2024-01-30T07:15:48;100985.88;;;1.33;91.97
61906;BME280;47863;55.766;37.672;2024-01-30T07:18:13;101024.34;;;1.58;92.39
61906;BME280;47863;55.766;37.672;2024-01-30T07:20:39;101017.19;;;1.60;92.25
61906;BME280;47863;55.766;37.672;2024-01-30T07:23:14;101019.69;;;1.63;92.27
61906;BME280;47863;55.766;37.672;2024-01-30T07:25:42;101033.66;;;1.65;92.04
61906;BME280;47863;55.766;37.672;2024-01-30T07:28:08;100991.94;;;1.54;92.30
61906;BME280;47863;55.766;37.672;2024-01-30T07:30:35;101027.78;;;1.77;92.28
61906;BME280;47863;55.766;37.672;2024-01-30T07:33:00;101037.19;;;1.83;92.34
61906;BME280;47863;55.766;37.672;2024-01-30T07:35:26;100995.00;;;1.64;92.25
61906;BME280;47863;55.766;37.672;2024-01-30T07:37:52;101038.69;;;1.89;91.86
61906;BME280;47863;55.766;37.672;2024-01-30T07:40:17;101022.06;;;1.87;91.99
61906;BME280;47863;55.766;37.672;2024-01-30T07:42:44;101033.03;;;1.96;92.05
61906;BME280;47863;55.766;37.672;2024-01-30T07:45:10;101037.41;;;1.97;92.08
61906;BME280;47863;55.766;37.672;2024-01-30T07:47:35;101033.75;;;2.00;92.23
61906;BME280;47863;55.766;37.672;2024-01-30T07:50:01;101007.53;;;1.95;92.30
61906;BME280;47863;55.766;37.672;2024-01-30T07:52:28;100992.47;;;1.97;91.94
61906;BME280;47863;55.766;37.672;2024-01-30T07:54:54;101022.19;;;2.20;92.06
61906;BME280;47863;55.766;37.672;2024-01-30T08:00:03;101019.06;;;2.29;91.74
61906;BME280;47863;55.766;37.672;2024-01-30T08:02:31;101000.25;;;2.18;91.66
61906;BME280;47863;55.766;37.672;2024-01-30T08:04:56;101027.53;;;2.36;91.73
61906;BME280;47863;55.766;37.672;2024-01-30T08:07:22;101029.03;;;2.42;91.77
61906;BME280;47863;55.766;37.672;2024-01-30T08:09:48;101023.50;;;2.46;91.71
61906;BME280;47863;55.766;37.672;2024-01-30T08:12:13;101012.06;;;2.46;91.80
61906;BME280;47863;55.766;37.672;2024-01-30T08:14:39;101007.75;;;2.61;91.79
61906;BME280;47863;55.766;37.672;2024-01-30T08:17:06;101008.84;;;2.56;91.09
61906;BME280;47863;55.766;37.672;2024-01-30T08:19:33;101003.19;;;2.47;91.23
61906;BME280;47863;55.766;37.672;2024-01-30T08:21:59;101022.41;;;2.50;91.36
61906;BME280;47863;55.766;37.672;2024-01-30T08:24:24;101038.91;;;2.55;91.37
61906;BME280;47863;55.766;37.672;2024-01-30T08:26:50;101029.47;;;2.50;91.44
61906;BME280;47863;55.766;37.672;2024-01-30T08:29:15;101041.63;;;2.54;91.70
61906;BME280;47863;55.766;37.672;2024-01-30T08:31:41;101030.19;;;2.53;91.44
61906;BME280;47863;55.766;37.672;2024-01-30T08:34:07;101032.06;;;2.51;91.50
61906;BME280;47863;55.766;37.672;2024-01-30T08:36:32;101038.19;;;2.52;91.55
61906;BME280;47863;55.766;37.672;2024-01-30T08:38:58;101032.13;;;2.50;91.42
61906;BME280;47863;55.766;37.672;2024-01-30T08:41:24;101031.03;;;2.54;91.34
61906;BME280;47863;55.766;37.672;2024-01-30T08:43:49;101026.59;;;2.54;91.32
61906;BME280;47863;55.766;37.672;2024-01-30T08:46:18;101010.13;;;2.49;91.22
61906;BME280;47863;55.766;37.672;2024-01-30T08:48:43;101025.28;;;2.63;91.06
61906;BME280;47863;55.766;37.672;2024-01-30T08:51:09;101020.69;;;2.67;90.92
61906;BME280;47863;55.766;37.672;2024-01-30T08:53:35;101012.91;;;2.64;91.12
61906;BME280;47863;55.766;37.672;2024-01-30T08:56:02;101023.38;;;2.83;90.79
61906;BME280;47863;55.766;37.672;2024-01-30T08:58:28;101036.50;;;2.84;90.93
61906;BME280;47863;55.766;37.672;2024-01-30T09:00:53;101005.19;;;2.76;90.70
61906;BME280;47863;55.766;37.672;2024-01-30T09:03:19;101024.81;;;2.88;90.85
61906;BME280;47863;55.766;37.672;2024-01-30T09:05:45;101027.63;;;2.85;90.27
61906;BME280;47863;55.766;37.672;2024-01-30T09:08:10;100994.13;;;2.68;90.43
61906;BME280;47863;55.766;37.672;2024-01-30T09:10:39;100985.66;;;2.62;90.24
61906;BME280;47863;55.766;37.672;2024-01-30T09:13:04;101009.84;;;2.71;90.69
61906;BME280;47863;55.766;37.672;2024-01-30T09:15:30;101014.19;;;2.72;90.48
61906;BME280;47863;55.766;37.672;2024-01-30T09:17:55;101030.28;;;2.85;90.56
61906;BME280;47863;55.766;37.672;2024-01-30T09:20:21;101028.56;;;2.84;90.83
61906;BME280;47863;55.766;37.672;2024-01-30T09:22:47;101034.34;;;2.92;90.83
61906;BME280;47863;55.766;37.672;2024-01-30T09:25:14;101037.16;;;3.05;90.90
61906;BME280;47863;55.766;37.672;2024-01-30T09:27:40;101004.63;;;3.03;90.98
61906;BME280;47863;55.766;37.672;2024-01-30T09:30:06;101023.59;;;3.27;90.80
61906;BME280;47863;55.766;37.672;2024-01-30T09:32:32;101007.16;;;3.38;90.73
61906;BME280;47863;55.766;37.672;2024-01-30T09:34:58;101010.63;;;3.54;90.55
61906;BME280;47863;55.766;37.672;2024-01-30T09:37:23;101023.59;;;3.75;90.35
61906;BME280;47863;55.766;37.672;2024-01-30T09:39:49;100984.63;;;3.61;90.14
61906;BME280;47863;55.766;37.672;2024-01-30T09:42:21;101009.91;;;3.83;89.69
61906;BME280;47863;55.766;37.672;2024-01-30T09:44:51;101013.59;;;3.80;89.93
61906;BME280;47863;55.766;37.672;2024-01-30T09:47:18;101010.97;;;3.80;90.26
61906;BME280;47863;55.766;37.672;2024-01-30T09:49:44;101004.41;;;3.71;90.09
61906;BME280;47863;55.766;37.672;2024-01-30T09:52:11;101009.00;;;3.84;90.32
61906;BME280;47863;55.766;37.672;2024-01-30T09:54:38;101000.28;;;3.82;90.32
61906;BME280;47863;55.766;37.672;2024-01-30T09:57:04;101004.47;;;3.86;90.04
61906;BME280;47863;55.766;37.672;2024-01-30T09:59:31;100967.97;;;3.59;90.06
61906;BME280;47863;55.766;37.672;2024-01-30T10:01:57;101004.63;;;3.83;90.18
61906;BME280;47863;55.766;37.672;2024-01-30T10:04:23;100997.44;;;3.85;90.35
61906;BME280;47863;55.766;37.672;2024-01-30T10:06:49;101008.38;;;3.78;89.26
61906;BME280;47863;55.766;37.672;2024-01-30T10:09:38;101007.38;;;3.65;89.45
61906;BME280;47863;55.766;37.672;2024-01-30T10:12:04;100976.56;;;3.32;89.39
61906;BME280;47863;55.766;37.672;2024-01-30T10:14:31;101015.16;;;3.52;89.89
61906;BME280;47863;55.766;37.672;2024-01-30T10:16:57;101020.38;;;3.54;90.04
61906;BME280;47863;55.766;37.672;2024-01-30T10:19:23;100997.47;;;3.37;89.78
61906;BME280;47863;55.766;37.672;2024-01-30T10:21:49;101023.97;;;3.53;89.96
61906;BME280;47863;55.766;37.672;2024-01-30T10:24:14;101023.88;;;3.54;90.05
61906;BME280;47863;55.766;37.672;2024-01-30T10:26:40;101016.78;;;3.55;90.13
61906;BME280;47863;55.766;37.672;2024-01-30T10:29:08;101028.06;;;3.58;90.19
61906;BME280;47863;55.766;37.672;2024-01-30T10:31:34;101032.34;;;3.61;90.27
61906;BME280;47863;55.766;37.672;2024-01-30T10:34:00;101024.31;;;3.63;90.31
61906;BME280;47863;55.766;37.672;2024-01-30T10:36:28;101014.56;;;3.63;90.34
61906;BME280;47863;55.766;37.672;2024-01-30T10:38:59;101016.44;;;3.61;89.89
61906;BME280;47863;55.766;37.672;2024-01-30T10:41:31;101007.91;;;3.56;89.92
61906;BME280;47863;55.766;37.672;2024-01-30T10:44:02;101001.06;;;3.52;90.16
61906;BME280;47863;55.766;37.672;2024-01-30T10:46:32;100983.88;;;3.43;89.97
61906;BME280;47863;55.766;37.672;2024-01-30T10:49:00;100977.81;;;3.41;90.32
61906;BME280;47863;55.766;37.672;2024-01-30T10:51:29;101009.25;;;3.63;90.24
61906;BME280;47863;55.766;37.672;2024-01-30T10:53:56;100990.38;;;3.53;90.21
61906;BME280;47863;55.766;37.672;2024-01-30T10:56:22;101000.03;;;3.70;90.38
61906;BME280;47863;55.766;37.672;2024-01-30T10:58:52;101001.97;;;3.83;90.11
61906;BME280;47863;55.766;37.672;2024-01-30T11:01:19;101008.69;;;4.04;89.83
61906;BME280;47863;55.766;37.672;2024-01-30T11:03:50;101001.13;;;4.12;89.63
61906;BME280;47863;55.766;37.672;2024-01-30T11:06:16;101016.66;;;4.34;89.75
61906;BME280;47863;55.766;37.672;2024-01-30T11:08:45;101009.53;;;4.35;89.20
61906;BME280;47863;55.766;37.672;2024-01-30T11:11:11;100982.19;;;4.18;89.59
61906;BME280;47863;55.766;37.672;2024-01-30T11:13:37;101022.53;;;4.40;89.75
61906;BME280;47863;55.766;37.672;2024-01-30T11:16:05;101009.34;;;4.38;88.89
61906;BME280;47863;55.766;37.672;2024-01-30T11:18:32;101000.22;;;4.28;89.24
61906;BME280;47863;55.766;37.672;2024-01-30T11:20:59;100980.97;;;4.10;89.07
61906;BME280;47863;55.766;37.672;2024-01-30T11:23:30;100989.59;;;4.13;89.25
61906;BME280;47863;55.766;37.672;2024-01-30T11:26:01;101006.34;;;4.14;89.28
61906;BME280;47863;55.766;37.672;2024-01-30T11:28:33;101013.38;;;4.15;89.40
61906;BME280;47863;55.766;37.672;2024-01-30T11:31:04;101020.06;;;4.06;89.73
61906;BME280;47863;55.766;37.672;2024-01-30T11:33:30;100999.22;;;3.84;89.93
61906;BME280;47863;55.766;37.672;2024-01-30T11:36:00;101010.19;;;3.78;89.89
61906;BME280;47863;55.766;37.672;2024-01-30T11:38:27;101043.25;;;3.87;90.01
61906;BME280;47863;55.766;37.672;2024-01-30T11:40:54;101009.38;;;3.62;89.85
61906;BME280;47863;55.766;37.672;2024-01-30T11:43:22;101003.47;;;3.56;89.80
61906;BME280;47863;55.766;37.672;2024-01-30T11:45:47;101039.69;;;3.72;89.53
61906;BME280;47863;55.766;37.672;2024-01-30T11:48:13;101002.69;;;3.38;89.89
61906;BME280;47863;55.766;37.672;2024-01-30T11:50:39;101045.69;;;3.60;89.76
61906;BME280;47863;55.766;37.672;2024-01-30T11:53:08;101049.69;;;3.51;90.08
61906;BME280;47863;55.766;37.672;2024-01-30T11:55:34;101029.25;;;3.37;89.99
61906;BME280;47863;55.766;37.672;2024-01-30T11:58:02;100974.81;;;3.00;90.24
61906;BME280;47863;55.766;37.672;2024-01-30T12:00:27;101058.16;;;3.42;90.20
61906;BME280;47863;55.766;37.672;2024-01-30T12:02:54;101048.06;;;3.32;90.15
61906;BME280;47863;55.766;37.672;2024-01-30T12:05:26;101068.13;;;3.36;90.13
61906;BME280;47863;55.766;37.672;2024-01-30T12:07:51;101039.16;;;3.17;89.98
61906;BME280;47863;55.766;37.672;2024-01-30T12:10:17;101069.25;;;3.32;90.08
61906;BME280;47863;55.766;37.672;2024-01-30T12:12:49;101033.50;;;3.08;90.14
61906;BME280;47863;55.766;37.672;2024-01-30T12:15:15;101039.88;;;3.04;90.02
61906;BME280;47863;55.766;37.672;2024-01-30T12:17:41;101059.56;;;3.15;90.15
61906;BME280;47863;55.766;37.672;2024-01-30T12:20:12;101068.38;;;3.16;90.08
61906;BME280;47863;55.766;37.672;2024-01-30T12:22:42;101077.38;;;3.12;90.42
61906;BME280;47863;55.766;37.672;2024-01-30T12:25:17;101062.00;;;3.03;90.17
61906;BME280;47863;55.766;37.672;2024-01-30T12:27:44;101029.13;;;2.91;90.16
61906;BME280;47863;55.766;37.672;2024-01-30T12:30:11;101052.78;;;3.10;90.27
61906;BME280;47863;55.766;37.672;2024-01-30T12:32:42;101059.75;;;3.12;90.28
61906;BME280;47863;55.766;37.672;2024-01-30T12:35:19;101076.38;;;3.14;90.34
61906;BME280;47863;55.766;37.672;2024-01-30T12:37:46;100966.53;;;2.56;89.87
61906;BME280;47863;55.766;37.672;2024-01-30T12:40:14;101058.44;;;3.20;90.08
61906;BME280;47863;55.766;37.672;2024-01-30T12:42:41;101056.50;;;3.23;90.14
61906;BME280;47863;55.766;37.672;2024-01-30T12:45:08;101062.63;;;3.24;89.70
61906;BME280;47863;55.766;37.672;2024-01-30T12:47:34;101067.84;;;3.25;89.98